NOAA Web Site Link Tides and Currents Home Page Transparent placeholder image

PORTS® Data Listing: 9414290 San Francisco, CA

CO-OPS RAW PORTS DATA

************************      PRELIMINARY DATA      ************************** 

     THIS RAW DATA HAS NOT BEEN SUBJECT TO THE NATIONAL OCEAN SERVICE'S        
     QUALITY CONTROL OR QUALITY ASSURANCE PROCEDURES AND DOES NOT MEET         
     THE CRITERIA AND STANDARDS OF OFFICIAL NATIONAL OCEAN SERVICE             
     DATA.  IT IS RELEASED FOR LIMITED PUBLIC USE AS PRELIMINARY DATA TO       
     BE USED ONLY WITH APPROPRIATE CAUTION.                                    

************************      PRELIMINARY DATA      ************************** 


       CD   -   Calendar date
       T    -   Time
       TZ   -   Timezone
       PW   -   Predicted water level (feet above MLLW)
       OW   -   Observed water level (feet above MLLW)
       WS   -   Wind speed (knots)
       WD   -   Wind direction (degrees true)
       WG   -   Wind gust (knots)
       AT   -   Air temperature (degrees farenheit)
       WT   -   Water temperature (degrees farenheit)
       AP   -   Air pressure (millibars)
       SA   -   Salinty (PSU - Practical Salinity Units)
       SG   -   Specific gravity
       RH   -   Relative humidity
       AG   -   Air gap (feet)
       VI   -   Visibility (nautical miles)

       ** NOTE **
       A variable that has its data fields filled with "9"s, indicates that
       data was not collected for that sample period.
       **********


STATION NAME: San Francisco (9414290)
****************************************************************************************************
    CD       T    TZ    PW     OW    WS   WD   WG    AT    WT    AP    SA    SG     RH    AG   VI
****************************************************************************************************
2019/06/23 20:42 PDT    3.72   4.19   10  267   16  57.6  59.7 1013.7 -9.9 -9.999 -99.9 -99.99 -9.99
2019/06/23 20:48 PDT    3.66   4.12    6  264   12  56.8  59.5 1013.8 -9.9 -9.999 -99.9 -99.99 -9.99
2019/06/23 20:54 PDT    3.61   4.09    7  262   13  56.5  59.9 1013.7 -9.9 -9.999 -99.9 -99.99 -9.99
2019/06/23 21:00 PDT    3.56   4.04    8  265   13  56.5  60.1 1013.7 -9.9 -9.999 -99.9 -99.99 -9.99
2019/06/23 21:06 PDT    3.50   3.96    6  257   15  56.5  60.3 1013.7 -9.9 -9.999 -99.9 -99.99 -9.99
2019/06/23 21:12 PDT    3.45   3.94    8  249   18  56.3  60.4 1013.7 -9.9 -9.999 -99.9 -99.99 -9.99
2019/06/23 21:18 PDT    3.40   3.91    8  261   12  56.3  60.4 1013.7 -9.9 -9.999 -99.9 -99.99 -9.99
2019/06/23 21:24 PDT    3.35   3.86    6  244   11  56.1  60.3 1013.8 -9.9 -9.999 -99.9 -99.99 -9.99
2019/06/23 21:30 PDT    3.31   3.81    9  234   14  55.9  60.3 1013.9 -9.9 -9.999 -99.9 -99.99 -9.99
2019/06/23 21:36 PDT    3.26   3.78    5  250   11  55.9  60.3 1013.9 -9.9 -9.999 -99.9 -99.99 -9.99
2019/06/23 21:42 PDT    3.22   3.70    8  239   14  55.6  60.3 1013.9 -9.9 -9.999 -99.9 -99.99 -9.99
2019/06/23 21:48 PDT    3.17   3.65    7  251   15  55.6  60.4 1013.9 -9.9 -9.999 -99.9 -99.99 -9.99
2019/06/23 21:54 PDT    3.14   3.62    7  245   10  55.6  60.6 1013.8 -9.9 -9.999 -99.9 -99.99 -9.99
2019/06/23 22:00 PDT    3.10   3.56    7  236   13  55.4  60.8 1013.8 -9.9 -9.999 -99.9 -99.99 -9.99
2019/06/23 22:06 PDT    3.06   3.54    6  216   13  55.2  61.0 1013.9 -9.9 -9.999 -99.9 -99.99 -9.99
2019/06/23 22:12 PDT    3.03   3.54    3  203    8  55.2  61.0 1014.0 -9.9 -9.999 -99.9 -99.99 -9.99
2019/06/23 22:18 PDT    3.00   3.49    4  233   13  55.2  61.2 1014.1 -9.9 -9.999 -99.9 -99.99 -9.99
2019/06/23 22:24 PDT    2.97   3.44    3  236   11  55.0  61.3 1014.1 -9.9 -9.999 -99.9 -99.99 -9.99
2019/06/23 22:30 PDT    2.94   3.38    5  196   10  55.0  61.3 1014.1 -9.9 -9.999 -99.9 -99.99 -9.99
2019/06/23 22:36 PDT    2.92   3.35    4  233   10  55.0  61.3 1014.2 -9.9 -9.999 -99.9 -99.99 -9.99
2019/06/23 22:42 PDT    2.90   3.37    4  224    8  55.2  61.3 1014.2 -9.9 -9.999 -99.9 -99.99 -9.99
2019/06/23 22:48 PDT    2.88   3.36    3  214   12  55.2  61.3 1014.1 -9.9 -9.999 -99.9 -99.99 -9.99
2019/06/23 22:54 PDT    2.86   3.35    4  268   11  55.2  61.3 1014.1 -9.9 -9.999 -99.9 -99.99 -9.99
2019/06/23 23:00 PDT    2.85   3.34    3  206   10  55.2  61.2 1014.1 -9.9 -9.999 -99.9 -99.99 -9.99
2019/06/23 23:06 PDT    2.83   3.31    7  230   12  55.0  61.0 1014.1 -9.9 -9.999 -99.9 -99.99 -9.99
2019/06/23 23:12 PDT    2.83   3.32    2  233    9  55.0  60.8 1014.1 -9.9 -9.999 -99.9 -99.99 -9.99
2019/06/23 23:18 PDT    2.82   3.32    4  215    8  55.0  60.6 1014.0 -9.9 -9.999 -99.9 -99.99 -9.99
2019/06/23 23:24 PDT    2.81   3.33    2  241   10  55.0  60.6 1013.9 -9.9 -9.999 -99.9 -99.99 -9.99
2019/06/23 23:30 PDT    2.81   3.36    5  228    9  55.0  60.6 1013.9 -9.9 -9.999 -99.9 -99.99 -9.99
2019/06/23 23:36 PDT    2.81   3.37    4  209    8  55.0  61.0 1013.9 -9.9 -9.999 -99.9 -99.99 -9.99
2019/06/23 23:42 PDT    2.82   3.37    3  209    8  55.0  61.0 1013.9 -9.9 -9.999 -99.9 -99.99 -9.99
2019/06/23 23:48 PDT    2.82   3.38    4  259    9  55.0  61.0 1013.8 -9.9 -9.999 -99.9 -99.99 -9.99
2019/06/23 23:54 PDT    2.83   3.37    2  235    7  54.9  61.2 1013.7 -9.9 -9.999 -99.9 -99.99 -9.99
2019/06/24 00:00 PDT    2.84   3.34    2  229   10  55.0  61.2 1013.7 -9.9 -9.999 -99.9 -99.99 -9.99
2019/06/24 00:06 PDT    2.85   3.35    5  234    9  54.9  61.2 1013.7 -9.9 -9.999 -99.9 -99.99 -9.99
2019/06/24 00:12 PDT    2.87   3.35    3  245    7  55.0  61.2 1013.7 -9.9 -9.999 -99.9 -99.99 -9.99
2019/06/24 00:18 PDT    2.89   3.34    4  242    6  55.0  61.2 1013.6 -9.9 -9.999 -99.9 -99.99 -9.99
2019/06/24 00:24 PDT    2.91   3.39    2  242    4  55.0  61.2 1013.6 -9.9 -9.999 -99.9 -99.99 -9.99
2019/06/24 00:30 PDT    2.93   3.46    4  236    7  55.0  61.2 1013.5 -9.9 -9.999 -99.9 -99.99 -9.99
2019/06/24 00:36 PDT    2.96   3.54    4  201    6  55.0  61.2 1013.4 -9.9 -9.999 -99.9 -99.99 -9.99
2019/06/24 00:42 PDT    2.99   3.60    4  242    9  55.0  61.2 1013.4 -9.9 -9.999 -99.9 -99.99 -9.99
2019/06/24 00:48 PDT    3.02   3.63    3  228    7  54.9  61.2 1013.3 -9.9 -9.999 -99.9 -99.99 -9.99
2019/06/24 00:54 PDT    3.05   3.63    2  273    6  55.0  61.2 1013.2 -9.9 -9.999 -99.9 -99.99 -9.99
2019/06/24 01:00 PDT    3.08   3.62    4  220    7  55.0  61.2 1013.2 -9.9 -9.999 -99.9 -99.99 -9.99
2019/06/24 01:06 PDT    3.12   3.64    5  264    8  55.2  61.0 1013.2 -9.9 -9.999 -99.9 -99.99 -9.99
2019/06/24 01:12 PDT    3.16   3.66    6  261   10  55.2  61.0 1013.2 -9.9 -9.999 -99.9 -99.99 -9.99
2019/06/24 01:18 PDT    3.19   3.68    6  241   10  55.2  61.0 1013.2 -9.9 -9.999 -99.9 -99.99 -9.99
2019/06/24 01:24 PDT    3.24   3.72    3  239    7  55.2  61.0 1013.2 -9.9 -9.999 -99.9 -99.99 -9.99
2019/06/24 01:30 PDT    3.28   3.79    4  240   10  54.9  61.0 1013.2 -9.9 -9.999 -99.9 -99.99 -9.99
2019/06/24 01:36 PDT    3.32   3.84    8  257   10  54.5  61.0 1013.1 -9.9 -9.999 -99.9 -99.99 -9.99
2019/06/24 01:42 PDT    3.36   3.85    4  242    9  54.5  61.0 1013.0 -9.9 -9.999 -99.9 -99.99 -9.99
2019/06/24 01:48 PDT    3.41   3.88    6  241   10  54.5  61.0 1012.9 -9.9 -9.999 -99.9 -99.99 -9.99
2019/06/24 01:54 PDT    3.45   3.92    7  249   11  54.3  61.0 1012.9 -9.9 -9.999 -99.9 -99.99 -9.99
2019/06/24 02:00 PDT    3.49   3.93    5  248   11  54.3  61.0 1012.8 -9.9 -9.999 -99.9 -99.99 -9.99
2019/06/24 02:06 PDT    3.54   3.95   10  247   14  54.3  61.0 1012.7 -9.9 -9.999 -99.9 -99.99 -9.99
2019/06/24 02:12 PDT    3.58   4.01    4  272   16  54.5  61.0 1012.7 -9.9 -9.999 -99.9 -99.99 -9.99
2019/06/24 02:18 PDT    3.63   4.04    6  250   11  54.5  61.0 1012.7 -9.9 -9.999 -99.9 -99.99 -9.99
2019/06/24 02:24 PDT    3.67   4.07    6  244   10  54.5  61.0 1012.7 -9.9 -9.999 -99.9 -99.99 -9.99
2019/06/24 02:30 PDT    3.71   4.14    8  240   13  54.3  61.0 1012.6 -9.9 -9.999 -99.9 -99.99 -9.99
2019/06/24 02:36 PDT    3.75   4.18    3  234   13  54.5  61.0 1012.6 -9.9 -9.999 -99.9 -99.99 -9.99
2019/06/24 02:42 PDT    3.79   4.19    6  237   11  54.5  61.0 1012.5 -9.9 -9.999 -99.9 -99.99 -9.99
2019/06/24 02:48 PDT    3.83   4.22    5  270    8  54.3  61.0 1012.5 -9.9 -9.999 -99.9 -99.99 -9.99
2019/06/24 02:54 PDT    3.87   4.29    6  258    8  54.3  61.0 1012.6 -9.9 -9.999 -99.9 -99.99 -9.99
2019/06/24 03:00 PDT    3.91   4.35    6  246   10  54.5  61.0 1012.6 -9.9 -9.999 -99.9 -99.99 -9.99
2019/06/24 03:06 PDT    3.94   4.39    2  250   11  54.5  61.0 1012.6 -9.9 -9.999 -99.9 -99.99 -9.99
2019/06/24 03:12 PDT    3.98   4.39    4  266   11  54.5  61.0 1012.5 -9.9 -9.999 -99.9 -99.99 -9.99
2019/06/24 03:18 PDT    4.01   4.40    8  246   11  54.3  61.0 1012.5 -9.9 -9.999 -99.9 -99.99 -9.99
2019/06/24 03:24 PDT    4.04   4.41    5  252   10  54.5  61.0 1012.5 -9.9 -9.999 -99.9 -99.99 -9.99
2019/06/24 03:30 PDT    4.06   4.41    8  242   14  54.3  61.0 1012.5 -9.9 -9.999 -99.9 -99.99 -9.99
2019/06/24 03:36 PDT    4.09   4.46    4  221   12  54.3  61.0 1012.5 -9.9 -9.999 -99.9 -99.99 -9.99
2019/06/24 03:42 PDT    4.11   4.50    8  255   13  54.1  61.0 1012.3 -9.9 -9.999 -99.9 -99.99 -9.99
2019/06/24 03:48 PDT    4.13   4.56    5  262   10  54.1  61.0 1012.4 -9.9 -9.999 -99.9 -99.99 -9.99
2019/06/24 03:54 PDT    4.15   4.59    6  250   10  54.1  61.0 1012.3 -9.9 -9.999 -99.9 -99.99 -9.99
2019/06/24 04:00 PDT    4.17   4.59    6  261   14  54.0  61.0 1012.4 -9.9 -9.999 -99.9 -99.99 -9.99
2019/06/24 04:06 PDT    4.18   4.56    4  220   12  54.0  61.0 1012.4 -9.9 -9.999 -99.9 -99.99 -9.99
2019/06/24 04:12 PDT    4.19   4.57    5  247   10  54.0  61.0 1012.3 -9.9 -9.999 -99.9 -99.99 -9.99
2019/06/24 04:18 PDT    4.20   4.58    7  255   11  54.0  61.0 1012.2 -9.9 -9.999 -99.9 -99.99 -9.99
2019/06/24 04:24 PDT    4.21   4.55    2  296    9  54.0  61.0 1012.3 -9.9 -9.999 -99.9 -99.99 -9.99
2019/06/24 04:30 PDT    4.21   4.58    6  243   10  54.0  61.0 1012.2 -9.9 -9.999 -99.9 -99.99 -9.99
2019/06/24 04:36 PDT    4.21   4.59    5  246   12  54.0  61.0 1012.2 -9.9 -9.999 -99.9 -99.99 -9.99
2019/06/24 04:42 PDT    4.20   4.65    7  228   14  54.1  61.0 1012.2 -9.9 -9.999 -99.9 -99.99 -9.99
2019/06/24 04:48 PDT    4.19   4.64    4  236   13  54.3  61.0 1012.2 -9.9 -9.999 -99.9 -99.99 -9.99
2019/06/24 04:54 PDT    4.18   4.63    5  245   10  54.5  61.0 1012.2 -9.9 -9.999 -99.9 -99.99 -9.99
2019/06/24 05:00 PDT    4.17   4.57    6  253   11  54.5  61.0 1012.2 -9.9 -9.999 -99.9 -99.99 -9.99
2019/06/24 05:06 PDT    4.15   4.51    9  249   14  54.3  61.0 1012.2 -9.9 -9.999 -99.9 -99.99 -9.99
2019/06/24 05:12 PDT    4.13   4.50    5  247   14  54.5  60.6 1012.2 -9.9 -9.999 -99.9 -99.99 -9.99
2019/06/24 05:18 PDT    4.11   4.47    4  245   15  54.3  60.3 1012.2 -9.9 -9.999 -99.9 -99.99 -9.99
2019/06/24 05:24 PDT    4.08   4.50    8  241   13  54.5  60.3 1012.3 -9.9 -9.999 -99.9 -99.99 -9.99
2019/06/24 05:30 PDT    4.05   4.45    6  244   13  54.5  60.1 1012.3 -9.9 -9.999 -99.9 -99.99 -9.99
2019/06/24 05:36 PDT    4.01   4.45    5  244   10  54.5  59.9 1012.4 -9.9 -9.999 -99.9 -99.99 -9.99
2019/06/24 05:42 PDT    3.97   4.45    6  252   11  54.7  59.9 1012.3 -9.9 -9.999 -99.9 -99.99 -9.99
2019/06/24 05:48 PDT    3.93   4.42    6  255    9  54.9  59.7 1012.4 -9.9 -9.999 -99.9 -99.99 -9.99
2019/06/24 05:54 PDT    3.88   4.38    5  245    9  54.9  59.7 1012.3 -9.9 -9.999 -99.9 -99.99 -9.99
2019/06/24 06:00 PDT    3.83   4.32    7  243   13  54.7  59.7 1012.4 -9.9 -9.999 -99.9 -99.99 -9.99
2019/06/24 06:06 PDT    3.78   4.28    6  257   13  54.7  59.7 1012.4 -9.9 -9.999 -99.9 -99.99 -9.99
2019/06/24 06:12 PDT    3.73   4.20    4  250    8  54.9  59.7 1012.4 -9.9 -9.999 -99.9 -99.99 -9.99
2019/06/24 06:18 PDT    3.67   4.17    4  226    9  54.9  59.7 1012.5 -9.9 -9.999 -99.9 -99.99 -9.99
2019/06/24 06:24 PDT    3.60   4.11    4  256   10  54.9  59.7 1012.4 -9.9 -9.999 -99.9 -99.99 -9.99
2019/06/24 06:30 PDT    3.54   4.00    4  244    9  54.9  59.9 1012.4 -9.9 -9.999 -99.9 -99.99 -9.99
2019/06/24 06:36 PDT    3.47   3.93    4  266   11  54.9  60.1 1012.4 -9.9 -9.999 -99.9 -99.99 -9.99
2019/06/24 06:42 PDT    3.40   3.90    2  255   11  55.0  59.9 1012.3 -9.9 -9.999 -99.9 -99.99 -9.99
2019/06/24 06:48 PDT    3.33   3.86    5  237   10  55.2  59.9 1012.4 -9.9 -9.999 -99.9 -99.99 -9.99
2019/06/24 06:54 PDT    3.25   3.78    3  238   10  55.2  59.9 1012.4 -9.9 -9.999 -99.9 -99.99 -9.99
2019/06/24 07:00 PDT    3.17   3.69    3  255    8  55.2  59.9 1012.5 -9.9 -9.999 -99.9 -99.99 -9.99
2019/06/24 07:06 PDT    3.10   3.64    4  224   12  55.2  59.9 1012.5 -9.9 -9.999 -99.9 -99.99 -9.99
2019/06/24 07:12 PDT    3.02   3.56    4  205    9  55.2  60.3 1012.5 -9.9 -9.999 -99.9 -99.99 -9.99
2019/06/24 07:18 PDT    2.93   3.47    7  249   11  55.2  60.4 1012.5 -9.9 -9.999 -99.9 -99.99 -9.99
2019/06/24 07:24 PDT    2.85   3.39    4  225   11  55.2  60.4 1012.6 -9.9 -9.999 -99.9 -99.99 -9.99
2019/06/24 07:30 PDT    2.77   3.30    4  221   11  55.2  60.6 1012.7 -9.9 -9.999 -99.9 -99.99 -9.99
2019/06/24 07:36 PDT    2.68   3.23    4  236   11  55.2  60.6 1012.7 -9.9 -9.999 -99.9 -99.99 -9.99
2019/06/24 07:42 PDT    2.59   3.18    5  241   12  55.6  60.6 1012.7 -9.9 -9.999 -99.9 -99.99 -9.99
2019/06/24 07:48 PDT    2.51   3.13    6  248   10  55.6  60.6 1012.7 -9.9 -9.999 -99.9 -99.99 -9.99
2019/06/24 07:54 PDT    2.42   3.05    7  243   12  55.6  60.4 1012.7 -9.9 -9.999 -99.9 -99.99 -9.99
2019/06/24 08:00 PDT    2.34   2.95    7  221   12  55.8  60.4 1012.8 -9.9 -9.999 -99.9 -99.99 -9.99
2019/06/24 08:06 PDT    2.25   2.85    4  253    8  55.8  60.4 1012.8 -9.9 -9.999 -99.9 -99.99 -9.99
2019/06/24 08:12 PDT    2.16   2.75    3  254    8  55.8  60.4 1012.9 -9.9 -9.999 -99.9 -99.99 -9.99
2019/06/24 08:18 PDT    2.08   2.66    7  244   10  55.6  60.4 1012.9 -9.9 -9.999 -99.9 -99.99 -9.99
2019/06/24 08:24 PDT    1.99   2.56    6  249   11  55.6  60.4 1012.8 -9.9 -9.999 -99.9 -99.99 -9.99
2019/06/24 08:30 PDT    1.91   2.46    3  261   10  55.8  60.4 1012.9 -9.9 -9.999 -99.9 -99.99 -9.99
2019/06/24 08:36 PDT    1.83   2.35    4  214    6  55.8  60.4 1012.9 -9.9 -9.999 -99.9 -99.99 -9.99
2019/06/24 08:42 PDT    1.75   2.30    3  239    8  55.8  60.6 1012.9 -9.9 -9.999 -99.9 -99.99 -9.99
2019/06/24 08:48 PDT    1.67   2.24    6  261   10  55.8  60.6 1012.9 -9.9 -9.999 -99.9 -99.99 -9.99
2019/06/24 08:54 PDT    1.59   2.18    4  239    8  55.8  60.8 1013.0 -9.9 -9.999 -99.9 -99.99 -9.99
2019/06/24 09:00 PDT    1.52   2.10    3  246    7  55.9  60.8 1013.1 -9.9 -9.999 -99.9 -99.99 -9.99
2019/06/24 09:06 PDT    1.44   2.07    6  218   11  55.8  60.8 1013.1 -9.9 -9.999 -99.9 -99.99 -9.99
2019/06/24 09:12 PDT    1.37   1.99    4  268   10  55.8  60.8 1013.1 -9.9 -9.999 -99.9 -99.99 -9.99
2019/06/24 09:18 PDT    1.30   1.93    3  257    9  55.9  60.8 1013.1 -9.9 -9.999 -99.9 -99.99 -9.99
2019/06/24 09:24 PDT    1.24   1.86    3  269    7  55.9  61.0 1013.1 -9.9 -9.999 -99.9 -99.99 -9.99
2019/06/24 09:30 PDT    1.18   1.82    5  289    8  55.8  61.0 1013.2 -9.9 -9.999 -99.9 -99.99 -9.99
2019/06/24 09:36 PDT    1.12   1.77    4  280   11  55.8  61.2 1013.2 -9.9 -9.999 -99.9 -99.99 -9.99
2019/06/24 09:42 PDT    1.06   1.72    4  251   11  55.9  61.2 1013.2 -9.9 -9.999 -99.9 -99.99 -9.99
2019/06/24 09:48 PDT    1.01   1.66    5  252   10  56.1  61.3 1013.2 -9.9 -9.999 -99.9 -99.99 -9.99
2019/06/24 09:54 PDT    0.96   1.60    5  247   10  56.3  61.3 1013.1 -9.9 -9.999 -99.9 -99.99 -9.99
2019/06/24 10:00 PDT    0.91   1.58    4  279    9  56.5  61.5 1013.1 -9.9 -9.999 -99.9 -99.99 -9.99
2019/06/24 10:06 PDT    0.87   1.58    5  267    9  56.5  61.5 1013.1 -9.9 -9.999 -99.9 -99.99 -9.99
2019/06/24 10:12 PDT    0.83   1.55    5  251    9  56.7  61.7 1013.1 -9.9 -9.999 -99.9 -99.99 -9.99
2019/06/24 10:18 PDT    0.80   1.50    3  282   11  56.7  61.7 1013.1 -9.9 -9.999 -99.9 -99.99 -9.99
2019/06/24 10:24 PDT    0.77   1.46    7  242   10  56.7  61.7 1013.1 -9.9 -9.999 -99.9 -99.99 -9.99
2019/06/24 10:30 PDT    0.74   1.46    5  271   10  56.7  61.9 1013.0 -9.9 -9.999 -99.9 -99.99 -9.99
2019/06/24 10:36 PDT    0.72   1.45    7  253   11  56.7  61.9 1013.1 -9.9 -9.999 -99.9 -99.99 -9.99
2019/06/24 10:42 PDT    0.70   1.45    5  246   11  56.8  62.1 1013.1 -9.9 -9.999 -99.9 -99.99 -9.99
2019/06/24 10:48 PDT    0.69   1.47    4  243   10  56.8  62.1 1013.1 -9.9 -9.999 -99.9 -99.99 -9.99
2019/06/24 10:54 PDT    0.68   1.47    8  235   11  56.8  62.2 1013.1 -9.9 -9.999 -99.9 -99.99 -9.99
2019/06/24 11:00 PDT    0.67   1.45    5  237   10  56.8  62.2 1013.0 -9.9 -9.999 -99.9 -99.99 -9.99
2019/06/24 11:06 PDT    0.67   1.44    5  233   10  57.2  62.2 1013.0 -9.9 -9.999 -99.9 -99.99 -9.99
2019/06/24 11:12 PDT    0.67   1.45    6  220   12  57.2  62.4 1013.1 -9.9 -9.999 -99.9 -99.99 -9.99
2019/06/24 11:18 PDT    0.67   1.47    4  258   10  57.4  62.4 1013.0 -9.9 -9.999 -99.9 -99.99 -9.99
2019/06/24 11:24 PDT    0.68   1.50    7  241   11  57.4  62.6 1012.9 -9.9 -9.999 -99.9 -99.99 -9.99
2019/06/24 11:30 PDT    0.69   1.52    9  230   13  57.2  62.6 1012.9 -9.9 -9.999 -99.9 -99.99 -9.99
2019/06/24 11:36 PDT    0.71   1.54    7  231   12  57.6  62.6 1013.0 -9.9 -9.999 -99.9 -99.99 -9.99
2019/06/24 11:42 PDT    0.73   1.58    9  239   13  57.4  62.8 1012.9 -9.9 -9.999 -99.9 -99.99 -9.99
2019/06/24 11:48 PDT    0.75   1.57    7  242   13  57.4  62.8 1012.9 -9.9 -9.999 -99.9 -99.99 -9.99
2019/06/24 11:54 PDT    0.78   1.57    5  245   14  57.6  63.0 1012.9 -9.9 -9.999 -99.9 -99.99 -9.99
2019/06/24 12:00 PDT    0.81   1.59    8  239   13  57.6  63.1 1012.9 -9.9 -9.999 -99.9 -99.99 -9.99
2019/06/24 12:06 PDT    0.85   1.64    8  259   13  57.7  63.1 1012.9 -9.9 -9.999 -99.9 -99.99 -9.99
2019/06/24 12:12 PDT    0.89   1.67    8  240   14  57.9  63.3 1012.8 -9.9 -9.999 -99.9 -99.99 -9.99
2019/06/24 12:18 PDT    0.93   1.69    7  235   14  58.3  63.5 1012.9 -9.9 -9.999 -99.9 -99.99 -9.99
2019/06/24 12:24 PDT    0.97   1.72    8  241   12  58.3  63.7 1012.8 -9.9 -9.999 -99.9 -99.99 -9.99
2019/06/24 12:30 PDT    1.02   1.77    8  246   13  58.1  63.9 1012.8 -9.9 -9.999 -99.9 -99.99 -9.99
2019/06/24 12:36 PDT    1.07   1.79    8  241   17  58.3  63.9 1012.8 -9.9 -9.999 -99.9 -99.99 -9.99
2019/06/24 12:42 PDT    1.13   1.88    7  258   13  58.6  63.9 1012.9 -9.9 -9.999 -99.9 -99.99 -9.99
2019/06/24 12:48 PDT    1.19   1.95    9  235   17  58.3  64.0 1012.8 -9.9 -9.999 -99.9 -99.99 -9.99
2019/06/24 12:54 PDT    1.25   2.00    8  233   16  58.6  64.0 1012.7 -9.9 -9.999 -99.9 -99.99 -9.99
2019/06/24 13:00 PDT    1.31   2.07   12  239   18  58.1  64.0 1012.7 -9.9 -9.999 -99.9 -99.99 -9.99
2019/06/24 13:06 PDT    1.38   2.13   11  240   17  58.3  64.0 1012.6 -9.9 -9.999 -99.9 -99.99 -9.99
2019/06/24 13:12 PDT    1.45   2.19   10  249   18  58.5  64.2 1012.6 -9.9 -9.999 -99.9 -99.99 -9.99
2019/06/24 13:18 PDT    1.52   2.22   10  245   17  58.5  64.2 1012.7 -9.9 -9.999 -99.9 -99.99 -9.99
2019/06/24 13:24 PDT    1.60   2.25   13  241   18  58.3  64.2 1012.6 -9.9 -9.999 -99.9 -99.99 -9.99
2019/06/24 13:30 PDT    1.68   2.31   10  238   17  58.3  64.2 1012.6 -9.9 -9.999 -99.9 -99.99 -9.99
2019/06/24 13:36 PDT    1.76   2.39    7  227   20  58.5  64.2 1012.5 -9.9 -9.999 -99.9 -99.99 -9.99
2019/06/24 13:42 PDT    1.84   2.45    9  240   15  58.5  64.2 1012.4 -9.9 -9.999 -99.9 -99.99 -9.99
2019/06/24 13:48 PDT    1.93   2.53    9  240   15  58.5  64.4 1012.4 -9.9 -9.999 -99.9 -99.99 -9.99
2019/06/24 13:54 PDT    2.01   2.62   11  235   17  58.5  64.6 1012.3 -9.9 -9.999 -99.9 -99.99 -9.99
2019/06/24 14:00 PDT    2.10   2.74   10  248   17  58.6  64.6 1012.2 -9.9 -9.999 -99.9 -99.99 -9.99
2019/06/24 14:06 PDT    2.19   2.81    9  254   15  58.8  64.6 1012.2 -9.9 -9.999 -99.9 -99.99 -9.99
2019/06/24 14:12 PDT    2.28   2.88   10  247   18  58.8  64.8 1012.2 -9.9 -9.999 -99.9 -99.99 -9.99
2019/06/24 14:18 PDT    2.37   2.98    7  253   12  59.2  64.8 1012.2 -9.9 -9.999 -99.9 -99.99 -9.99
2019/06/24 14:24 PDT    2.46   3.07    8  257   21  59.0  64.8 1012.1 -9.9 -9.999 -99.9 -99.99 -9.99
2019/06/24 14:30 PDT    2.55 -99.99 -999 -999 -999 -99.9 -99.9 -999.9 -9.9 -9.999 -99.9 -99.99 -9.99
2019/06/24 14:36 PDT    2.64 -99.99 -999 -999 -999 -99.9 -99.9 -999.9 -9.9 -9.999 -99.9 -99.99 -9.99
2019/06/24 14:42 PDT    2.74 -99.99 -999 -999 -999 -99.9 -99.9 -999.9 -9.9 -9.999 -99.9 -99.99 -9.99
2019/06/24 14:48 PDT    2.83 -99.99 -999 -999 -999 -99.9 -99.9 -999.9 -9.9 -9.999 -99.9 -99.99 -9.99
2019/06/24 14:54 PDT    2.92 -99.99 -999 -999 -999 -99.9 -99.9 -999.9 -9.9 -9.999 -99.9 -99.99 -9.99
2019/06/24 15:00 PDT    3.01 -99.99 -999 -999 -999 -99.9 -99.9 -999.9 -9.9 -9.999 -99.9 -99.99 -9.99
2019/06/24 15:06 PDT    3.10 -99.99 -999 -999 -999 -99.9 -99.9 -999.9 -9.9 -9.999 -99.9 -99.99 -9.99
2019/06/24 15:12 PDT    3.19 -99.99 -999 -999 -999 -99.9 -99.9 -999.9 -9.9 -9.999 -99.9 -99.99 -9.99
2019/06/24 15:18 PDT    3.28 -99.99 -999 -999 -999 -99.9 -99.9 -999.9 -9.9 -9.999 -99.9 -99.99 -9.99
2019/06/24 15:24 PDT    3.37 -99.99 -999 -999 -999 -99.9 -99.9 -999.9 -9.9 -9.999 -99.9 -99.99 -9.99
2019/06/24 15:30 PDT    3.45 -99.99 -999 -999 -999 -99.9 -99.9 -999.9 -9.9 -9.999 -99.9 -99.99 -9.99
2019/06/24 15:36 PDT    3.54 -99.99 -999 -999 -999 -99.9 -99.9 -999.9 -9.9 -9.999 -99.9 -99.99 -9.99
2019/06/24 15:42 PDT    3.62 -99.99 -999 -999 -999 -99.9 -99.9 -999.9 -9.9 -9.999 -99.9 -99.99 -9.99
2019/06/24 15:48 PDT    3.70 -99.99 -999 -999 -999 -99.9 -99.9 -999.9 -9.9 -9.999 -99.9 -99.99 -9.99
2019/06/24 15:54 PDT    3.78 -99.99 -999 -999 -999 -99.9 -99.9 -999.9 -9.9 -9.999 -99.9 -99.99 -9.99
2019/06/24 16:00 PDT    3.86 -99.99 -999 -999 -999 -99.9 -99.9 -999.9 -9.9 -9.999 -99.9 -99.99 -9.99
2019/06/24 16:06 PDT    3.94 -99.99 -999 -999 -999 -99.9 -99.9 -999.9 -9.9 -9.999 -99.9 -99.99 -9.99
2019/06/24 16:12 PDT    4.01 -99.99 -999 -999 -999 -99.9 -99.9 -999.9 -9.9 -9.999 -99.9 -99.99 -9.99
2019/06/24 16:18 PDT    4.09 -99.99 -999 -999 -999 -99.9 -99.9 -999.9 -9.9 -9.999 -99.9 -99.99 -9.99
2019/06/24 16:24 PDT    4.16 -99.99 -999 -999 -999 -99.9 -99.9 -999.9 -9.9 -9.999 -99.9 -99.99 -9.99
2019/06/24 16:30 PDT    4.23 -99.99 -999 -999 -999 -99.9 -99.9 -999.9 -9.9 -9.999 -99.9 -99.99 -9.99
2019/06/24 16:36 PDT    4.29 -99.99 -999 -999 -999 -99.9 -99.9 -999.9 -9.9 -9.999 -99.9 -99.99 -9.99
2019/06/24 16:42 PDT    4.36 -99.99 -999 -999 -999 -99.9 -99.9 -999.9 -9.9 -9.999 -99.9 -99.99 -9.99
2019/06/24 16:48 PDT    4.42 -99.99 -999 -999 -999 -99.9 -99.9 -999.9 -9.9 -9.999 -99.9 -99.99 -9.99
2019/06/24 16:54 PDT    4.48 -99.99 -999 -999 -999 -99.9 -99.9 -999.9 -9.9 -9.999 -99.9 -99.99 -9.99
2019/06/24 17:00 PDT    4.53 -99.99 -999 -999 -999 -99.9 -99.9 -999.9 -9.9 -9.999 -99.9 -99.99 -9.99
2019/06/24 17:06 PDT    4.58 -99.99 -999 -999 -999 -99.9 -99.9 -999.9 -9.9 -9.999 -99.9 -99.99 -9.99
2019/06/24 17:12 PDT    4.63 -99.99 -999 -999 -999 -99.9 -99.9 -999.9 -9.9 -9.999 -99.9 -99.99 -9.99
2019/06/24 17:18 PDT    4.68 -99.99 -999 -999 -999 -99.9 -99.9 -999.9 -9.9 -9.999 -99.9 -99.99 -9.99
2019/06/24 17:24 PDT    4.72 -99.99 -999 -999 -999 -99.9 -99.9 -999.9 -9.9 -9.999 -99.9 -99.99 -9.99
2019/06/24 17:30 PDT    4.76 -99.99 -999 -999 -999 -99.9 -99.9 -999.9 -9.9 -9.999 -99.9 -99.99 -9.99
2019/06/24 17:36 PDT    4.80 -99.99 -999 -999 -999 -99.9 -99.9 -999.9 -9.9 -9.999 -99.9 -99.99 -9.99
2019/06/24 17:42 PDT    4.83 -99.99 -999 -999 -999 -99.9 -99.9 -999.9 -9.9 -9.999 -99.9 -99.99 -9.99
2019/06/24 17:48 PDT    4.86 -99.99 -999 -999 -999 -99.9 -99.9 -999.9 -9.9 -9.999 -99.9 -99.99 -9.99
2019/06/24 17:54 PDT    4.88 -99.99 -999 -999 -999 -99.9 -99.9 -999.9 -9.9 -9.999 -99.9 -99.99 -9.99
2019/06/24 18:00 PDT    4.91 -99.99 -999 -999 -999 -99.9 -99.9 -999.9 -9.9 -9.999 -99.9 -99.99 -9.99
2019/06/24 18:06 PDT    4.92 -99.99 -999 -999 -999 -99.9 -99.9 -999.9 -9.9 -9.999 -99.9 -99.99 -9.99
2019/06/24 18:12 PDT    4.94 -99.99 -999 -999 -999 -99.9 -99.9 -999.9 -9.9 -9.999 -99.9 -99.99 -9.99
2019/06/24 18:18 PDT    4.94 -99.99 -999 -999 -999 -99.9 -99.9 -999.9 -9.9 -9.999 -99.9 -99.99 -9.99
2019/06/24 18:24 PDT    4.95 -99.99 -999 -999 -999 -99.9 -99.9 -999.9 -9.9 -9.999 -99.9 -99.99 -9.99
2019/06/24 18:30 PDT    4.95 -99.99 -999 -999 -999 -99.9 -99.9 -999.9 -9.9 -9.999 -99.9 -99.99 -9.99
2019/06/24 18:36 PDT    4.95 -99.99 -999 -999 -999 -99.9 -99.9 -999.9 -9.9 -9.999 -99.9 -99.99 -9.99
2019/06/24 18:42 PDT    4.94 -99.99 -999 -999 -999 -99.9 -99.9 -999.9 -9.9 -9.999 -99.9 -99.99 -9.99
2019/06/24 18:48 PDT    4.93 -99.99 -999 -999 -999 -99.9 -99.9 -999.9 -9.9 -9.999 -99.9 -99.99 -9.99
2019/06/24 18:54 PDT    4.92 -99.99 -999 -999 -999 -99.9 -99.9 -999.9 -9.9 -9.999 -99.9 -99.99 -9.99
2019/06/24 19:00 PDT    4.90 -99.99 -999 -999 -999 -99.9 -99.9 -999.9 -9.9 -9.999 -99.9 -99.99 -9.99
2019/06/24 19:06 PDT    4.88 -99.99 -999 -999 -999 -99.9 -99.9 -999.9 -9.9 -9.999 -99.9 -99.99 -9.99
2019/06/24 19:12 PDT    4.86 -99.99 -999 -999 -999 -99.9 -99.9 -999.9 -9.9 -9.999 -99.9 -99.99 -9.99
2019/06/24 19:18 PDT    4.83 -99.99 -999 -999 -999 -99.9 -99.9 -999.9 -9.9 -9.999 -99.9 -99.99 -9.99
2019/06/24 19:24 PDT    4.80 -99.99 -999 -999 -999 -99.9 -99.9 -999.9 -9.9 -9.999 -99.9 -99.99 -9.99
2019/06/24 19:30 PDT    4.76 -99.99 -999 -999 -999 -99.9 -99.9 -999.9 -9.9 -9.999 -99.9 -99.99 -9.99
2019/06/24 19:36 PDT    4.73 -99.99 -999 -999 -999 -99.9 -99.9 -999.9 -9.9 -9.999 -99.9 -99.99 -9.99
2019/06/24 19:42 PDT    4.69 -99.99 -999 -999 -999 -99.9 -99.9 -999.9 -9.9 -9.999 -99.9 -99.99 -9.99
2019/06/24 19:48 PDT    4.64 -99.99 -999 -999 -999 -99.9 -99.9 -999.9 -9.9 -9.999 -99.9 -99.99 -9.99
2019/06/24 19:54 PDT    4.60 -99.99 -999 -999 -999 -99.9 -99.9 -999.9 -9.9 -9.999 -99.9 -99.99 -9.99
2019/06/24 20:00 PDT    4.55 -99.99 -999 -999 -999 -99.9 -99.9 -999.9 -9.9 -9.999 -99.9 -99.99 -9.99
2019/06/24 20:06 PDT    4.50 -99.99 -999 -999 -999 -99.9 -99.9 -999.9 -9.9 -9.999 -99.9 -99.99 -9.99
2019/06/24 20:12 PDT    4.45 -99.99 -999 -999 -999 -99.9 -99.9 -999.9 -9.9 -9.999 -99.9 -99.99 -9.99
2019/06/24 20:18 PDT    4.39 -99.99 -999 -999 -999 -99.9 -99.9 -999.9 -9.9 -9.999 -99.9 -99.99 -9.99
2019/06/24 20:24 PDT    4.34 -99.99 -999 -999 -999 -99.9 -99.9 -999.9 -9.9 -9.999 -99.9 -99.99 -9.99
2019/06/24 20:30 PDT    4.28 -99.99 -999 -999 -999 -99.9 -99.9 -999.9 -9.9 -9.999 -99.9 -99.99 -9.99
2019/06/24 20:36 PDT    4.22 -99.99 -999 -999 -999 -99.9 -99.9 -999.9 -9.9 -9.999 -99.9 -99.99 -9.99
2019/06/24 20:42 PDT    4.16 -99.99 -999 -999 -999 -99.9 -99.9 -999.9 -9.9 -9.999 -99.9 -99.99 -9.99

Revised: 08/08/2018
NOAA / National Ocean Service
Web site owner: Center for Operational Oceanographic Products and Services